createdAt,value
2017-01-27T00:00:12.487Z,959.07
2017-01-27T00:01:13.153Z,959.01
2017-01-27T00:02:13.955Z,959.02
2017-01-27T00:03:11.914Z,959.05
2017-01-27T00:04:12.114Z,959.07
2017-01-27T00:05:12.924Z,959.02
2017-01-27T00:06:12.718Z,959.09
2017-01-27T00:07:12.976Z,959.05
2017-01-27T00:08:12.636Z,959.07
2017-01-27T00:09:12.765Z,959.08
2017-01-27T00:10:09.727Z,959.08
2017-01-27T00:11:13.555Z,959.05
2017-01-27T00:12:12.634Z,959.07
2017-01-27T00:13:13.320Z,959.07
2017-01-27T00:14:11.536Z,959.02
2017-01-27T00:15:13.233Z,959.04
2017-01-27T00:16:13.894Z,959.08
2017-01-27T00:17:12.118Z,959.04
2017-01-27T00:18:12.850Z,959.03
2017-01-27T00:19:12.099Z,959.00
2017-01-27T00:20:12.652Z,958.99
2017-01-27T00:21:13.361Z,958.97
2017-01-27T00:22:13.028Z,958.95
2017-01-27T00:23:12.668Z,958.92
2017-01-27T00:24:12.897Z,958.95
2017-01-27T00:25:12.495Z,958.92
2017-01-27T00:26:12.637Z,958.95
2017-01-27T00:27:13.434Z,958.95
2017-01-27T00:28:12.637Z,958.95
2017-01-27T00:29:12.829Z,958.94
2017-01-27T00:30:12.396Z,958.95
2017-01-27T00:31:15.466Z,958.95
2017-01-27T00:32:12.687Z,958.97
2017-01-27T00:33:13.241Z,958.96
2017-01-27T00:34:12.343Z,958.99
2017-01-27T00:35:12.928Z,958.99
2017-01-27T00:36:11.037Z,958.94
2017-01-27T00:37:12.912Z,958.97
2017-01-27T00:38:12.076Z,959.00
2017-01-27T00:39:12.689Z,958.98
2017-01-27T00:40:13.544Z,958.97
2017-01-27T00:41:13.314Z,959.00
2017-01-27T00:42:13.940Z,959.02
2017-01-27T00:43:12.274Z,959.01
2017-01-27T00:44:12.446Z,958.99
2017-01-27T00:45:14.063Z,959.02
2017-01-27T00:46:12.896Z,958.98
2017-01-27T00:47:13.352Z,959.03
2017-01-27T00:48:12.514Z,958.98
2017-01-27T00:49:15.061Z,959.04
2017-01-27T00:50:12.807Z,959.03
2017-01-27T00:51:12.764Z,959.01
2017-01-27T00:52:11.935Z,959.02
2017-01-27T00:53:13.597Z,958.98
2017-01-27T00:54:13.351Z,959.01
2017-01-27T00:55:15.469Z,959.02
2017-01-27T00:56:12.502Z,959.02
2017-01-27T00:57:13.812Z,959.01
2017-01-27T00:58:12.637Z,959.01
2017-01-27T00:59:13.558Z,959.00
2017-01-27T01:00:13.439Z,958.98
2017-01-27T01:01:14.263Z,958.94
2017-01-27T01:02:11.835Z,958.96
2017-01-27T01:03:15.737Z,958.91
2017-01-27T01:04:13.695Z,958.91
2017-01-27T01:05:13.352Z,958.87
2017-01-27T01:06:14.279Z,958.89
2017-01-27T01:07:14.436Z,958.89
2017-01-27T01:08:13.178Z,958.92
2017-01-27T01:09:14.451Z,958.88
2017-01-27T01:10:13.498Z,958.87
2017-01-27T01:11:14.829Z,958.86
2017-01-27T01:12:11.095Z,958.84
2017-01-27T01:13:12.306Z,958.85
2017-01-27T01:14:14.449Z,958.91
2017-01-27T01:15:14.042Z,958.90
2017-01-27T01:16:15.298Z,958.91
2017-01-27T01:17:14.793Z,958.89
2017-01-27T01:18:12.422Z,958.85
2017-01-27T01:19:13.047Z,958.90
2017-01-27T01:20:12.988Z,958.92
2017-01-27T01:21:12.616Z,958.94
2017-01-27T01:22:10.945Z,958.96
2017-01-27T01:23:11.948Z,958.95
2017-01-27T01:24:12.664Z,958.99
2017-01-27T01:25:12.649Z,958.96
2017-01-27T01:26:12.805Z,958.89
2017-01-27T01:27:13.220Z,958.91
2017-01-27T01:28:13.624Z,958.89
2017-01-27T01:29:14.211Z,958.85
2017-01-27T01:30:12.266Z,958.90
2017-01-27T01:31:13.058Z,958.85
2017-01-27T01:32:12.783Z,958.89
2017-01-27T01:33:11.901Z,958.82
2017-01-27T01:34:11.050Z,958.81
2017-01-27T01:35:12.492Z,958.82
2017-01-27T01:36:12.602Z,958.81
2017-01-27T01:37:13.556Z,958.87
2017-01-27T01:38:13.476Z,958.85
2017-01-27T01:39:13.414Z,958.82
2017-01-27T01:40:12.454Z,958.85
2017-01-27T01:41:13.138Z,958.82
2017-01-27T01:42:13.552Z,958.86
2017-01-27T01:43:13.387Z,958.85
2017-01-27T01:44:13.867Z,958.82
2017-01-27T01:45:13.469Z,958.83
2017-01-27T01:46:13.216Z,958.78
2017-01-27T01:47:12.917Z,958.82
2017-01-27T01:48:12.611Z,958.83
2017-01-27T01:49:12.676Z,958.84
2017-01-27T01:50:13.105Z,958.84
2017-01-27T01:51:13.436Z,958.89
2017-01-27T01:52:13.887Z,958.84
2017-01-27T01:53:12.697Z,958.83
2017-01-27T01:54:13.383Z,958.82
2017-01-27T01:55:13.052Z,958.81
2017-01-27T01:56:14.167Z,958.81
2017-01-27T01:57:12.946Z,958.83
2017-01-27T01:58:12.746Z,958.80
2017-01-27T01:59:14.586Z,958.77
2017-01-27T02:00:13.515Z,958.77
2017-01-27T02:01:13.237Z,958.76
2017-01-27T02:02:13.071Z,958.76
2017-01-27T02:03:12.248Z,958.76
2017-01-27T02:04:14.190Z,958.74
2017-01-27T02:05:13.867Z,958.79
2017-01-27T02:06:12.462Z,958.82
2017-01-27T02:07:13.026Z,958.88
2017-01-27T02:08:13.505Z,958.82
2017-01-27T02:09:13.254Z,958.80
2017-01-27T02:10:12.248Z,958.79
2017-01-27T02:11:12.877Z,958.84
2017-01-27T02:12:12.601Z,958.82
2017-01-27T02:13:13.174Z,958.84
2017-01-27T02:14:13.932Z,958.80
2017-01-27T02:15:13.576Z,958.81
2017-01-27T02:16:13.997Z,958.78
2017-01-27T02:17:12.646Z,958.76
2017-01-27T02:18:13.308Z,958.78
2017-01-27T02:19:13.322Z,958.75
2017-01-27T02:20:13.230Z,958.73
2017-01-27T02:21:12.934Z,958.75
2017-01-27T02:22:12.126Z,958.73
2017-01-27T02:23:12.676Z,958.76
2017-01-27T02:24:13.459Z,958.73
2017-01-27T02:25:11.745Z,958.76
2017-01-27T02:26:12.807Z,958.70
2017-01-27T02:27:12.701Z,958.68
2017-01-27T02:28:14.319Z,958.64
2017-01-27T02:29:13.880Z,958.62
2017-01-27T02:30:12.127Z,958.62
2017-01-27T02:31:12.269Z,958.60
2017-01-27T02:32:14.060Z,958.66
2017-01-27T02:33:13.332Z,958.63
2017-01-27T02:34:12.981Z,958.64
2017-01-27T02:35:13.701Z,958.57
2017-01-27T02:36:14.521Z,958.58
2017-01-27T02:37:14.379Z,958.58
2017-01-27T02:38:12.568Z,958.56
2017-01-27T02:39:14.245Z,958.57
2017-01-27T02:40:13.204Z,958.59
2017-01-27T02:41:13.035Z,958.52
2017-01-27T02:42:13.860Z,958.56
2017-01-27T02:43:12.466Z,958.50
2017-01-27T02:44:14.271Z,958.50
2017-01-27T02:45:13.080Z,958.50
2017-01-27T02:46:13.269Z,958.44
2017-01-27T02:47:12.479Z,958.47
2017-01-27T02:48:12.541Z,958.44
2017-01-27T02:49:13.777Z,958.42
2017-01-27T02:50:12.010Z,958.38
2017-01-27T02:51:12.873Z,958.38
2017-01-27T02:52:11.993Z,958.41
2017-01-27T02:53:11.993Z,958.44
2017-01-27T02:54:12.118Z,958.41
2017-01-27T02:55:12.230Z,958.40
2017-01-27T02:56:12.338Z,958.39
2017-01-27T02:57:14.187Z,958.36
2017-01-27T02:58:13.063Z,958.35
2017-01-27T02:59:12.603Z,958.36
2017-01-27T03:00:14.561Z,958.31
2017-01-27T03:01:13.183Z,958.28
2017-01-27T03:02:13.076Z,958.33
2017-01-27T03:03:12.949Z,958.32
2017-01-27T03:04:11.974Z,958.36
2017-01-27T03:05:12.008Z,958.34
2017-01-27T03:06:12.645Z,958.31
2017-01-27T03:07:14.929Z,958.30
2017-01-27T03:08:12.869Z,958.28
2017-01-27T03:09:12.029Z,958.30
2017-01-27T03:10:12.147Z,958.29
2017-01-27T03:11:13.440Z,958.26
2017-01-27T03:12:14.906Z,958.23
2017-01-27T03:13:11.133Z,958.22
2017-01-27T03:14:10.586Z,958.23
2017-01-27T03:15:12.477Z,958.23
2017-01-27T03:16:12.592Z,958.26
2017-01-27T03:17:12.771Z,958.25
2017-01-27T03:18:12.039Z,958.20
2017-01-27T03:19:12.166Z,958.20
2017-01-27T03:20:14.702Z,958.24
2017-01-27T03:21:13.753Z,958.24
2017-01-27T03:22:12.718Z,958.18
2017-01-27T03:23:13.372Z,958.21
2017-01-27T03:24:12.561Z,958.22
2017-01-27T03:25:11.438Z,958.24
2017-01-27T03:26:12.677Z,958.22
2017-01-27T03:27:12.288Z,958.25
2017-01-27T03:28:14.019Z,958.27
2017-01-27T03:29:12.735Z,958.27
2017-01-27T03:30:12.904Z,958.19
2017-01-27T03:31:12.923Z,958.21
2017-01-27T03:32:13.049Z,958.21
2017-01-27T03:33:13.875Z,958.18
2017-01-27T03:34:12.867Z,958.18
2017-01-27T03:35:12.597Z,958.20
2017-01-27T03:36:12.960Z,958.20
2017-01-27T03:37:12.833Z,958.16
2017-01-27T03:38:12.677Z,958.19
2017-01-27T03:39:12.845Z,958.16
2017-01-27T03:40:12.169Z,958.21
2017-01-27T03:41:12.342Z,958.19
2017-01-27T03:42:12.885Z,958.21
2017-01-27T03:43:13.308Z,958.26
2017-01-27T03:44:13.930Z,958.32
2017-01-27T03:45:12.181Z,958.30
2017-01-27T03:46:13.085Z,958.32
2017-01-27T03:47:12.188Z,958.35
2017-01-27T03:48:12.314Z,958.41
2017-01-27T03:49:12.318Z,958.39
2017-01-27T03:50:12.861Z,958.45
2017-01-27T03:51:12.562Z,958.48
2017-01-27T03:52:12.705Z,958.49
2017-01-27T03:53:13.887Z,958.45
2017-01-27T03:54:12.125Z,958.45
2017-01-27T03:55:12.955Z,958.41
2017-01-27T03:56:12.052Z,958.43
2017-01-27T03:57:12.202Z,958.40
2017-01-27T03:58:12.823Z,958.33
2017-01-27T03:59:14.387Z,958.36
2017-01-27T04:00:13.230Z,958.35
2017-01-27T04:01:12.426Z,958.34
2017-01-27T04:02:14.287Z,958.37
2017-01-27T04:03:10.807Z,958.39
2017-01-27T04:04:13.738Z,958.36
2017-01-27T04:05:12.467Z,958.34
2017-01-27T04:06:12.637Z,958.34
2017-01-27T04:07:13.449Z,958.35
2017-01-27T04:08:12.664Z,958.33
2017-01-27T04:09:15.333Z,958.33
2017-01-27T04:10:12.987Z,958.27
2017-01-27T04:11:12.047Z,958.30
2017-01-27T04:12:13.259Z,958.22
2017-01-27T04:13:12.590Z,958.23
2017-01-27T04:14:13.208Z,958.21
2017-01-27T04:15:13.056Z,958.25
2017-01-27T04:16:13.830Z,958.25
2017-01-27T04:17:12.653Z,958.30
2017-01-27T04:18:13.517Z,958.23
2017-01-27T04:19:12.613Z,958.25
2017-01-27T04:20:13.431Z,958.28
2017-01-27T04:21:12.756Z,958.28
2017-01-27T04:22:12.539Z,958.25
2017-01-27T04:23:13.413Z,958.28
2017-01-27T04:24:12.516Z,958.24
2017-01-27T04:25:13.644Z,958.27
2017-01-27T04:26:12.814Z,958.25
2017-01-27T04:27:12.438Z,958.27
2017-01-27T04:28:12.599Z,958.26
2017-01-27T04:29:13.358Z,958.27
2017-01-27T04:30:14.185Z,958.29
2017-01-27T04:31:12.681Z,958.27
2017-01-27T04:32:13.029Z,958.30
2017-01-27T04:33:12.757Z,958.33
2017-01-27T04:34:12.735Z,958.28
2017-01-27T04:35:13.563Z,958.28
2017-01-27T04:36:15.468Z,958.26
2017-01-27T04:37:11.723Z,958.29
2017-01-27T04:38:11.971Z,958.29
2017-01-27T04:39:12.049Z,958.33
2017-01-27T04:40:12.047Z,958.30
2017-01-27T04:41:12.108Z,958.29
2017-01-27T04:42:12.723Z,958.30
2017-01-27T04:43:13.226Z,958.27
2017-01-27T04:44:12.964Z,958.31
2017-01-27T04:45:13.156Z,958.31
2017-01-27T04:46:12.850Z,958.36
2017-01-27T04:47:12.394Z,958.38
2017-01-27T04:48:13.078Z,958.40
2017-01-27T04:49:12.205Z,958.37
2017-01-27T04:50:12.894Z,958.36
2017-01-27T04:51:11.893Z,958.36
2017-01-27T04:52:12.530Z,958.33
2017-01-27T04:53:13.182Z,958.33
2017-01-27T04:54:11.186Z,958.31
2017-01-27T04:55:13.981Z,958.31
2017-01-27T04:56:13.002Z,958.28
2017-01-27T04:57:12.669Z,958.31
2017-01-27T04:58:13.287Z,958.30
2017-01-27T04:59:12.878Z,958.27
2017-01-27T05:00:14.475Z,958.27
2017-01-27T05:01:12.616Z,958.29
2017-01-27T05:02:12.659Z,958.25
2017-01-27T05:03:14.593Z,958.21
2017-01-27T05:04:12.614Z,958.25
2017-01-27T05:05:12.771Z,958.27
2017-01-27T05:06:12.607Z,958.27
2017-01-27T05:07:13.930Z,958.27
2017-01-27T05:08:12.472Z,958.28
2017-01-27T05:09:12.999Z,958.31
2017-01-27T05:10:12.661Z,958.29
2017-01-27T05:11:13.269Z,958.25
2017-01-27T05:12:12.321Z,958.25
2017-01-27T05:13:14.089Z,958.25
2017-01-27T05:14:13.249Z,958.22
2017-01-27T05:15:13.526Z,958.22
2017-01-27T05:16:13.079Z,958.20
2017-01-27T05:17:12.454Z,958.21
2017-01-27T05:18:13.310Z,958.22
2017-01-27T05:19:14.448Z,958.23
2017-01-27T05:20:12.649Z,958.23
2017-01-27T05:21:13.653Z,958.28
2017-01-27T05:22:13.253Z,958.32
2017-01-27T05:23:14.033Z,958.33
2017-01-27T05:24:11.973Z,958.35
2017-01-27T05:25:16.785Z,958.40
2017-01-27T05:26:11.694Z,958.42
2017-01-27T05:27:12.702Z,958.39
2017-01-27T05:28:12.692Z,958.43
2017-01-27T05:29:13.432Z,958.39
2017-01-27T05:30:13.402Z,958.37
2017-01-27T05:31:13.196Z,958.38
2017-01-27T05:32:12.408Z,958.39
2017-01-27T05:33:13.691Z,958.37
2017-01-27T05:34:13.885Z,958.32
2017-01-27T05:35:11.881Z,958.32
2017-01-27T05:36:10.934Z,958.28
2017-01-27T05:37:12.586Z,958.28
2017-01-27T05:38:13.765Z,958.28
2017-01-27T05:39:12.265Z,958.26
2017-01-27T05:40:13.398Z,958.30
2017-01-27T05:41:18.736Z,958.29
2017-01-27T05:42:12.699Z,958.31
2017-01-27T05:43:11.042Z,958.29
2017-01-27T05:44:12.024Z,958.33
2017-01-27T05:45:12.688Z,958.33
2017-01-27T05:46:12.606Z,958.39
2017-01-27T05:47:13.665Z,958.39
2017-01-27T05:48:11.908Z,958.38
2017-01-27T05:49:12.756Z,958.37
2017-01-27T05:50:11.839Z,958.39
2017-01-27T05:51:12.706Z,958.43
2017-01-27T05:52:16.236Z,958.46
2017-01-27T05:53:14.076Z,958.53
2017-01-27T05:54:12.791Z,958.58
2017-01-27T05:55:12.546Z,958.61
2017-01-27T05:56:12.906Z,958.60
2017-01-27T05:57:11.944Z,958.60
2017-01-27T05:58:12.604Z,958.60
2017-01-27T05:59:11.555Z,958.49
2017-01-27T06:00:13.527Z,958.49
2017-01-27T06:01:13.970Z,958.45
2017-01-27T06:02:12.786Z,958.44
2017-01-27T06:03:15.554Z,958.43
2017-01-27T06:04:13.147Z,958.47
2017-01-27T06:05:14.216Z,958.47
2017-01-27T06:06:12.373Z,958.50
2017-01-27T06:07:13.995Z,958.52
2017-01-27T06:08:13.329Z,958.56
2017-01-27T06:09:12.951Z,958.63
2017-01-27T06:10:12.075Z,958.73
2017-01-27T06:11:12.254Z,958.80
2017-01-27T06:12:12.387Z,958.85
2017-01-27T06:13:12.924Z,958.85
2017-01-27T06:14:12.755Z,958.87
2017-01-27T06:15:12.436Z,958.89
2017-01-27T06:16:13.215Z,958.94
2017-01-27T06:17:12.438Z,958.96
2017-01-27T06:18:12.549Z,959.04
2017-01-27T06:19:13.072Z,959.00
2017-01-27T06:20:12.193Z,959.01
2017-01-27T06:21:10.504Z,958.98
2017-01-27T06:22:13.367Z,958.96
2017-01-27T06:23:12.487Z,958.96
2017-01-27T06:24:12.548Z,959.05
2017-01-27T06:25:12.692Z,959.06
2017-01-27T06:26:12.719Z,959.02
2017-01-27T06:27:11.842Z,959.02
2017-01-27T06:28:12.899Z,959.03
2017-01-27T06:29:12.398Z,959.03
2017-01-27T06:30:12.527Z,958.97
2017-01-27T06:31:13.225Z,958.97
2017-01-27T06:32:12.268Z,958.93
2017-01-27T06:33:13.379Z,958.90
2017-01-27T06:34:12.489Z,958.93
2017-01-27T06:35:13.332Z,958.89
2017-01-27T06:36:13.437Z,958.97
2017-01-27T06:37:12.654Z,958.96
2017-01-27T06:38:12.769Z,958.96
2017-01-27T06:39:11.969Z,958.98
2017-01-27T06:40:11.943Z,958.95
2017-01-27T06:41:11.937Z,958.99
2017-01-27T06:42:12.438Z,958.98
2017-01-27T06:43:12.413Z,958.98
2017-01-27T06:44:10.620Z,958.96
2017-01-27T06:45:14.332Z,958.97
2017-01-27T06:46:10.733Z,958.97
2017-01-27T06:47:12.698Z,958.98
2017-01-27T06:48:13.339Z,959.02
2017-01-27T06:49:12.487Z,959.04
2017-01-27T06:50:11.552Z,959.06
2017-01-27T06:51:14.268Z,959.07
2017-01-27T06:52:14.006Z,959.08
2017-01-27T06:53:12.318Z,959.07
2017-01-27T06:54:12.844Z,959.05
2017-01-27T06:55:12.623Z,959.09
2017-01-27T06:56:13.408Z,959.11
2017-01-27T06:57:14.399Z,959.12
2017-01-27T06:58:11.650Z,959.12
2017-01-27T06:59:14.199Z,959.12
2017-01-27T07:00:12.746Z,959.09
2017-01-27T07:01:12.796Z,959.10
2017-01-27T07:02:13.376Z,959.12
2017-01-27T07:03:14.269Z,959.09
2017-01-27T07:04:14.109Z,959.09
2017-01-27T07:05:12.155Z,959.12
2017-01-27T07:06:13.404Z,959.14
2017-01-27T07:07:12.978Z,959.14
2017-01-27T07:08:14.629Z,959.16
2017-01-27T07:09:09.565Z,959.14
2017-01-27T07:10:14.088Z,959.14
2017-01-27T07:11:13.195Z,959.09
2017-01-27T07:12:12.953Z,959.11
2017-01-27T07:13:12.245Z,959.04
2017-01-27T07:14:12.679Z,959.07
2017-01-27T07:15:13.278Z,959.07
2017-01-27T07:16:13.308Z,959.10
2017-01-27T07:17:12.507Z,959.07
2017-01-27T07:18:13.348Z,959.09
2017-01-27T07:19:12.424Z,959.06
2017-01-27T07:20:13.323Z,959.06
2017-01-27T07:21:12.427Z,959.04
2017-01-27T07:22:11.597Z,959.08
2017-01-27T07:23:12.740Z,959.10
2017-01-27T07:24:11.668Z,959.06
2017-01-27T07:25:11.782Z,959.03
2017-01-27T07:26:11.668Z,959.04
2017-01-27T07:27:12.634Z,958.99
2017-01-27T07:28:12.664Z,958.97
2017-01-27T07:29:15.567Z,958.94
2017-01-27T07:30:12.780Z,958.92
2017-01-27T07:31:11.875Z,958.95
2017-01-27T07:32:12.484Z,958.96
2017-01-27T07:33:12.602Z,958.96
2017-01-27T07:34:11.606Z,958.97
2017-01-27T07:35:12.704Z,959.02
2017-01-27T07:36:14.139Z,958.96
2017-01-27T07:37:12.926Z,959.00
2017-01-27T07:38:12.522Z,958.97
2017-01-27T07:39:12.617Z,959.03
2017-01-27T07:40:12.773Z,959.01
2017-01-27T07:41:11.740Z,959.00
2017-01-27T07:42:12.460Z,959.02
2017-01-27T07:43:13.011Z,959.03
2017-01-27T07:44:13.708Z,959.01
2017-01-27T07:45:11.812Z,959.10
2017-01-27T07:46:12.445Z,959.05
2017-01-27T07:47:12.509Z,959.06
2017-01-27T07:48:15.588Z,959.07
2017-01-27T07:49:12.634Z,959.03
2017-01-27T07:50:14.384Z,959.05
2017-01-27T07:51:12.931Z,959.02
2017-01-27T07:52:12.129Z,959.01
2017-01-27T07:53:12.222Z,959.03
2017-01-27T07:54:12.860Z,959.06
2017-01-27T07:55:12.539Z,959.05
2017-01-27T07:56:12.618Z,959.03
2017-01-27T07:57:13.463Z,959.07
2017-01-27T07:58:13.756Z,959.10
2017-01-27T07:59:13.414Z,959.18
2017-01-27T08:00:09.989Z,959.14
2017-01-27T08:01:12.014Z,959.19
2017-01-27T08:02:12.705Z,959.17
2017-01-27T08:03:13.082Z,959.17
2017-01-27T08:04:12.184Z,959.15
2017-01-27T08:05:12.245Z,959.14
2017-01-27T08:06:12.935Z,959.17
2017-01-27T08:07:13.453Z,959.14
2017-01-27T08:08:13.086Z,959.11
2017-01-27T08:09:13.337Z,959.10
2017-01-27T08:10:11.464Z,959.11
2017-01-27T08:11:14.519Z,959.18
2017-01-27T08:12:13.364Z,959.21
2017-01-27T08:13:13.257Z,959.18
2017-01-27T08:14:12.398Z,959.21
2017-01-27T08:15:13.102Z,959.26
2017-01-27T08:16:12.227Z,959.25
2017-01-27T08:17:12.976Z,959.25
2017-01-27T08:18:12.337Z,959.24
2017-01-27T08:19:13.102Z,959.23
2017-01-27T08:20:11.098Z,959.24
2017-01-27T08:21:12.963Z,959.22
2017-01-27T08:22:11.966Z,959.25
2017-01-27T08:23:11.258Z,959.24
2017-01-27T08:24:12.822Z,959.26
2017-01-27T08:25:11.900Z,959.24
2017-01-27T08:26:10.843Z,959.22
2017-01-27T08:27:12.053Z,959.25
2017-01-27T08:28:12.779Z,959.30
2017-01-27T08:29:11.864Z,959.35
2017-01-27T08:30:11.809Z,959.36
2017-01-27T08:31:12.287Z,959.33
2017-01-27T08:32:12.352Z,959.35
2017-01-27T08:33:12.748Z,959.33
2017-01-27T08:34:12.527Z,959.34
2017-01-27T08:35:13.152Z,959.38
2017-01-27T08:36:12.220Z,959.33
2017-01-27T08:37:12.295Z,959.29
2017-01-27T08:38:12.481Z,959.26
2017-01-27T08:39:13.123Z,959.30
2017-01-27T08:40:12.907Z,959.30
2017-01-27T08:41:12.764Z,959.30
2017-01-27T08:42:11.825Z,959.28
2017-01-27T08:43:13.103Z,959.26
2017-01-27T08:44:13.935Z,959.33
2017-01-27T08:45:12.146Z,959.34
2017-01-27T08:46:12.669Z,959.35
2017-01-27T08:47:12.980Z,959.31
2017-01-27T08:48:12.060Z,959.30
2017-01-27T08:49:14.735Z,959.30
2017-01-27T08:50:13.924Z,959.27
2017-01-27T08:51:10.787Z,959.26
2017-01-27T08:52:14.850Z,959.36
2017-01-27T08:53:11.858Z,959.32
2017-01-27T08:54:11.763Z,959.34
2017-01-27T08:55:13.281Z,959.35
2017-01-27T08:56:12.939Z,959.32
2017-01-27T08:57:10.307Z,959.39
2017-01-27T08:58:13.461Z,959.37
2017-01-27T08:59:13.998Z,959.35
2017-01-27T09:00:12.151Z,959.39
2017-01-27T09:01:12.990Z,959.33
2017-01-27T09:02:13.065Z,959.34
2017-01-27T09:03:12.241Z,959.35
2017-01-27T09:04:12.915Z,959.35
2017-01-27T09:05:12.765Z,959.34
2017-01-27T09:06:11.869Z,959.32
2017-01-27T09:07:12.889Z,959.28
2017-01-27T09:08:11.906Z,959.30
2017-01-27T09:09:11.997Z,959.25
2017-01-27T09:10:10.896Z,959.26
2017-01-27T09:11:12.169Z,959.24
2017-01-27T09:12:12.863Z,959.23
2017-01-27T09:13:12.608Z,959.26
2017-01-27T09:14:13.467Z,959.21
2017-01-27T09:15:13.083Z,959.24
2017-01-27T09:16:12.582Z,959.22
2017-01-27T09:17:12.722Z,959.21
2017-01-27T09:18:12.803Z,959.22
2017-01-27T09:19:12.637Z,959.20
2017-01-27T09:20:13.372Z,959.22
2017-01-27T09:21:12.434Z,959.24
2017-01-27T09:22:15.079Z,959.27
2017-01-27T09:23:12.276Z,959.22
2017-01-27T09:24:12.933Z,959.22
2017-01-27T09:25:11.926Z,959.21
2017-01-27T09:26:11.912Z,959.26
2017-01-27T09:27:12.002Z,959.22
2017-01-27T09:28:12.098Z,959.23
2017-01-27T09:29:13.426Z,959.24
2017-01-27T09:30:14.160Z,959.25
2017-01-27T09:31:12.791Z,959.25
2017-01-27T09:32:12.364Z,959.26
2017-01-27T09:33:11.656Z,959.20
2017-01-27T09:34:13.177Z,959.18
2017-01-27T09:35:09.842Z,959.20
2017-01-27T09:36:11.874Z,959.21
2017-01-27T09:37:12.032Z,959.19
2017-01-27T09:38:15.593Z,959.19
2017-01-27T09:39:13.498Z,959.21
2017-01-27T09:40:14.136Z,959.17
2017-01-27T09:41:12.292Z,959.18
2017-01-27T09:42:09.845Z,959.19
2017-01-27T09:43:12.305Z,959.19
2017-01-27T09:44:13.549Z,959.19
2017-01-27T09:45:13.422Z,959.19
2017-01-27T09:46:13.107Z,959.19
2017-01-27T09:47:12.959Z,959.24
2017-01-27T09:48:12.715Z,959.23
2017-01-27T09:49:12.706Z,959.21
2017-01-27T09:50:13.510Z,959.27
2017-01-27T09:51:13.278Z,959.23
2017-01-27T09:52:12.354Z,959.27
2017-01-27T09:53:13.013Z,959.26
2017-01-27T09:54:12.118Z,959.26
2017-01-27T09:55:12.830Z,959.26
2017-01-27T09:56:12.193Z,959.24
2017-01-27T09:57:12.997Z,959.24
2017-01-27T09:58:12.952Z,959.21
2017-01-27T09:59:12.735Z,959.19
2017-01-27T10:00:14.539Z,959.19
2017-01-27T10:01:14.085Z,959.15
2017-01-27T10:02:12.406Z,959.24
2017-01-27T10:03:13.220Z,959.20
2017-01-27T10:04:14.800Z,959.12
2017-01-27T10:05:12.538Z,959.15
2017-01-27T10:06:12.715Z,959.12
2017-01-27T10:07:13.587Z,959.15
2017-01-27T10:08:13.301Z,959.22
2017-01-27T10:09:12.847Z,959.26
2017-01-27T10:10:12.564Z,959.26
2017-01-27T10:11:13.364Z,959.22
2017-01-27T10:12:12.976Z,959.25
2017-01-27T10:13:12.769Z,959.21
2017-01-27T10:14:11.911Z,959.16
2017-01-27T10:15:12.567Z,959.22
2017-01-27T10:16:13.151Z,959.28
2017-01-27T10:17:13.442Z,959.22
2017-01-27T10:18:13.137Z,959.09
2017-01-27T10:19:12.806Z,959.10
2017-01-27T10:20:12.532Z,959.01
2017-01-27T10:21:13.057Z,959.00
2017-01-27T10:22:12.221Z,958.98
2017-01-27T10:23:12.985Z,958.95
2017-01-27T10:24:13.532Z,958.92
2017-01-27T10:25:14.187Z,958.92
2017-01-27T10:26:12.299Z,958.88
2017-01-27T10:27:12.466Z,958.85
2017-01-27T10:28:12.813Z,958.89
2017-01-27T10:29:12.903Z,958.86
2017-01-27T10:30:12.288Z,958.83
2017-01-27T10:31:15.981Z,958.80
2017-01-27T10:32:12.804Z,958.76
2017-01-27T10:33:13.875Z,958.74
2017-01-27T10:34:12.094Z,958.73
2017-01-27T10:35:13.309Z,958.74
2017-01-27T10:36:13.027Z,958.71
2017-01-27T10:37:11.503Z,958.73
2017-01-27T10:38:14.238Z,958.68
2017-01-27T10:39:12.381Z,958.67
2017-01-27T10:40:12.493Z,958.61
2017-01-27T10:41:12.512Z,958.65
2017-01-27T10:42:13.141Z,958.61
2017-01-27T10:43:12.813Z,958.62
2017-01-27T10:44:13.353Z,958.55
2017-01-27T10:45:13.305Z,958.52
2017-01-27T10:46:12.499Z,958.54
2017-01-27T10:47:12.647Z,958.47
2017-01-27T10:48:12.706Z,958.45
2017-01-27T10:49:12.905Z,958.45
2017-01-27T10:50:12.298Z,958.44
2017-01-27T10:51:13.015Z,958.42
2017-01-27T10:52:12.023Z,958.38
2017-01-27T10:53:11.110Z,958.37
2017-01-27T10:54:12.743Z,958.39
2017-01-27T10:55:12.546Z,958.40
2017-01-27T10:56:13.542Z,958.34
2017-01-27T10:57:12.765Z,958.36
2017-01-27T10:58:12.065Z,958.30
2017-01-27T10:59:13.105Z,958.31
2017-01-27T11:00:12.310Z,958.26
2017-01-27T11:01:12.287Z,958.26
2017-01-27T11:02:12.178Z,958.29
2017-01-27T11:03:12.253Z,958.25
2017-01-27T11:04:12.168Z,958.22
2017-01-27T11:05:12.176Z,958.19
2017-01-27T11:06:12.884Z,958.17
2017-01-27T11:07:10.366Z,958.19
2017-01-27T11:08:12.800Z,958.20
2017-01-27T11:09:12.419Z,958.13
2017-01-27T11:10:11.543Z,958.15
2017-01-27T11:11:12.547Z,958.15
2017-01-27T11:12:12.594Z,958.11
2017-01-27T11:13:12.704Z,958.09
2017-01-27T11:14:14.374Z,958.11
2017-01-27T11:15:14.250Z,958.12
2017-01-27T11:16:11.169Z,958.08
2017-01-27T11:17:13.260Z,958.12
2017-01-27T11:18:12.412Z,958.11
2017-01-27T11:19:13.170Z,958.10
2017-01-27T11:20:12.673Z,958.14
2017-01-27T11:21:13.277Z,958.09
2017-01-27T11:22:13.293Z,958.07
2017-01-27T11:23:12.328Z,958.10
2017-01-27T11:24:14.765Z,958.05
2017-01-27T11:25:12.464Z,958.03
2017-01-27T11:26:15.905Z,957.99
2017-01-27T11:27:12.692Z,958.01
2017-01-27T11:28:14.496Z,957.98
2017-01-27T11:29:13.667Z,957.97
2017-01-27T11:30:13.339Z,958.02
2017-01-27T11:31:12.998Z,957.94
2017-01-27T11:32:11.329Z,957.93
2017-01-27T11:33:13.310Z,957.92
2017-01-27T11:34:10.104Z,957.91
2017-01-27T11:35:12.699Z,957.88
2017-01-27T11:36:13.467Z,957.85
2017-01-27T11:37:12.465Z,957.90
2017-01-27T11:38:13.285Z,957.90
2017-01-27T11:39:13.950Z,957.91
2017-01-27T11:40:12.492Z,957.90
2017-01-27T11:41:14.063Z,957.92
2017-01-27T11:42:13.678Z,957.91
2017-01-27T11:43:12.778Z,957.94
2017-01-27T11:44:13.037Z,957.94
2017-01-27T11:45:12.776Z,957.93
2017-01-27T11:46:11.766Z,957.95
2017-01-27T11:47:11.711Z,957.95
2017-01-27T11:48:12.511Z,957.99
2017-01-27T11:49:12.554Z,957.99
2017-01-27T11:50:12.823Z,957.97
2017-01-27T11:51:11.908Z,957.97
2017-01-27T11:52:13.745Z,957.94
2017-01-27T11:53:12.411Z,957.95
2017-01-27T11:54:13.163Z,957.91
2017-01-27T11:55:12.840Z,957.89
2017-01-27T11:56:11.882Z,957.91
2017-01-27T11:57:12.215Z,957.89
2017-01-27T11:58:09.997Z,957.89
2017-01-27T11:59:14.307Z,957.88
2017-01-27T12:00:12.460Z,957.83
2017-01-27T12:01:13.166Z,957.79
2017-01-27T12:02:13.177Z,957.81
2017-01-27T12:03:13.699Z,957.73
2017-01-27T12:04:14.424Z,957.66
2017-01-27T12:05:11.493Z,957.65
2017-01-27T12:06:13.353Z,957.67
2017-01-27T12:07:12.580Z,957.65
2017-01-27T12:08:11.621Z,957.65
2017-01-27T12:09:13.445Z,957.66
2017-01-27T12:10:13.271Z,957.62
2017-01-27T12:11:14.097Z,957.64
2017-01-27T12:12:12.173Z,957.64
2017-01-27T12:13:13.218Z,957.62
2017-01-27T12:14:13.735Z,957.59
2017-01-27T12:15:15.374Z,957.56
2017-01-27T12:16:13.135Z,957.55
2017-01-27T12:17:11.205Z,957.55
2017-01-27T12:18:12.555Z,957.54
2017-01-27T12:19:12.579Z,957.53
2017-01-27T12:20:12.476Z,957.52
2017-01-27T12:21:13.373Z,957.52
2017-01-27T12:22:12.977Z,957.47
2017-01-27T12:23:12.608Z,957.51
2017-01-27T12:24:13.437Z,957.50
2017-01-27T12:25:13.316Z,957.46
2017-01-27T12:26:12.852Z,957.51
2017-01-27T12:27:10.954Z,957.51
2017-01-27T12:28:10.711Z,957.48